Аэропорт: Ровно. Ровно

ICAO: UKLR

METAR:
2018/09/23 11:00
UKLR 231100Z 26007MPS 220V290 9999 SCT040 18/05 Q1017 NOSIG
METAR:
2014/02/13 15:15
TAF TAF UKLR 131410Z 1315/1524 27003MPS 1500 BR OVC004 
      TEMPO 1315/1324 0500 -RA FG OVC002 TX01/1315Z TN00/1321Z